Key West International Airport
KEYW : now visible

Airfield :











YOU CAN JOIN US ON...

 
LOGIN :

Register | Disclaimer

   EN    FR    IT 

 









Legend :    VFR   Marginal VFR   IFR   Intensive IFR   Very Intensive IFR
Visi :
Ceiling :
>= 8 km
>= 3000ft
5 to 8 km
1000 to 3000 ft
1500m to 5 km
500 to 1000 ft
800 to 1500m
200 to 500 ft
< 800m
< 200 ft
Symbols :   Thunderstorms  Fog  Heavy snow  Heavy precipitations  Wind > 20 kt






- Airport Elevation : 3 ft
- IATA code : EYW


KEYW - Key West International

CURRENT METAR :
  • 121853Z 10013KT 10SM FEW030 28/22 A3010 RMK AO2 SLP192 T02780217

EXPIRED METARs :
  • 121753Z 09011KT 10SM SCT020 28/22 A3013 RMK AO2 SLP202 60018 T02830217 10283 20228 58018
  • 121653Z 05008KT 10SM CLR 28/23 A3016 RMK AO2 SLP212 T02780228

TAF KEYW
Valid from the 12 at 18:00 until the 13 at 18:00 UTC


121735Z 1218/1318 05010KT P6SM SCT025
FM122300 09009KT P6SM FEW025



MET'MAP, your aeronautical weather chart ! - Copyright ORBIFLY December 2007 - Disclaimer

ORBIFLY MET'MAP TEAM :

Programming & Development : Alexandra Zaïnal
Concept & original design : Baudouin d'Aumeries
Assistance for programming : Marc-Olivier Méhu
Technical & hardware support : Manuel Goepfert

Contact : metmap@orbifly.com




SOURCES & CREDITS :

   NOAA       Earth
Advisory